Aviation Digital Data Service (ADDS)

Output produced by METARs form (0631 UTC 15 December 2017)
found at http://www.aviationweather.gov/adds/metars/
 
KALB 150541Z 1506/1606 VRB03KT P6SM SCT035 BKN045 
     FM151100 20004KT P6SM SCT045 SCT250 
     FM152000 19005KT P6SM SCT045 BKN120